This is the latest recevied weather packets stored in our database for station/object KG5APU. If no packets are shown the sender has not sent any weather packets the latest 10 day(s).
| Time | Temp. | Humidity | Pressure | Rain* | Wind** | Luminosity | Snow |
|---|---|---|---|---|---|---|---|
| 1777239518 | 28.89° C | 73% | 1006.8 hPa | 0 mm | - | 319 W/m² | - |
| 1777238913 | 28.89° C | 73% | 1007.1 hPa | 0 mm | - | 513 W/m² | - |
| 1777238312 | 28.33° C | 74% | 1007.2 hPa | 0 mm | - | 243 W/m² | - |
| 1777237712 | 28.89° C | 72% | 1007.1 hPa | 0 mm | - | 275 W/m² | - |
| 1777237112 | 28.89° C | 73% | 1007.4 hPa | 0 mm | - | 641 W/m² | - |
| 1777236509 | 27.78° C | 75% | 1007.5 hPa | 0 mm | - | 630 W/m² | - |
| 1777235906 | 28.33° C | 73% | 1007.7 hPa | 0 mm | - | 281 W/m² | - |
| 1777235307 | 28.33° C | 73% | 1007.5 hPa | 0 mm | - | 490 W/m² | - |
| 1777234705 | 28.89° C | 73% | 1007.8 hPa | 0 mm | - | 247 W/m² | - |
| 1777234102 | 27.78° C | 76% | 1007.9 hPa | 0 mm | - | 856 W/m² | - |
| 1777233500 | 27.78° C | 74% | 1007.9 hPa | 0 mm | - | 191 W/m² | - |
| 1777232900 | 28.33° C | 73% | 1008.1 hPa | 0 mm | - | 372 W/m² | - |
| 1777232298 | 27.78° C | 73% | 1008.3 hPa | 0 mm | - | 402 W/m² | - |
| 1777231696 | 28.33° C | 72% | 1008.3 hPa | 0 mm | - | 363 W/m² | - |
| 1777231095 | 27.78° C | 72% | 1008.2 hPa | 0 mm | - | 321 W/m² | - |
| 1777230491 | 28.33° C | 71% | 1008.2 hPa | 0 mm | - | 362 W/m² | - |
| 1777229890 | 27.78° C | 74% | 1008.3 hPa | 0 mm | - | 430 W/m² | - |
| 1777229290 | 27.78° C | 75% | 1008.7 hPa | 0 mm | - | 468 W/m² | - |
| 1777228688 | 27.22° C | 75% | 1008.8 hPa | 0 mm | - | 291 W/m² | - |
| 1777228086 | 27.22° C | 75% | 1009.1 hPa | 0 mm | - | 236 W/m² | - |
| 1777227482 | 27.78° C | 73% | 1008.9 hPa | 0 mm | - | 348 W/m² | - |
| 1777226880 | 27.22° C | 75% | 1009 hPa | 0 mm | - | 607 W/m² | - |
| 1777226280 | 27.22° C | 76% | 1009.1 hPa | 0 mm | - | 202 W/m² | - |
| 1777225678 | 27.78° C | 75% | 1009.2 hPa | 0 mm | - | 353 W/m² | - |
| 1777225072 | 28.33° C | 74% | 1009.4 hPa | 0 mm | - | 861 W/m² | - |
* Rain latest hour (hover to see other rain measurements)
** Current wind speed in m/s (hover to see current wind gust speed)